sensor_id;sensor_type;location;lat;lon;timestamp;pressure;altitude;pressure_sealevel;temperature;humidity
11987;BME280;6053;51.382;6.768;2023-10-13T00:02:01;101111.16;;;19.53;71.88
11987;BME280;6053;51.382;6.768;2023-10-13T00:04:33;101110.88;;;20.14;69.50
11987;BME280;6053;51.382;6.768;2023-10-13T00:07:06;101107.31;;;19.65;71.29
11987;BME280;6053;51.382;6.768;2023-10-13T00:09:37;101105.91;;;19.75;70.79
11987;BME280;6053;51.382;6.768;2023-10-13T00:12:07;101104.44;;;19.94;70.09
11987;BME280;6053;51.382;6.768;2023-10-13T00:14:46;101096.75;;;19.60;71.33
11987;BME280;6053;51.382;6.768;2023-10-13T00:17:23;101085.06;;;19.76;71.06
11987;BME280;6053;51.382;6.768;2023-10-13T00:19:52;101090.31;;;19.54;72.08
11987;BME280;6053;51.382;6.768;2023-10-13T00:22:20;101087.88;;;20.10;70.16
11987;BME280;6053;51.382;6.768;2023-10-13T00:24:50;101088.56;;;19.56;71.94
11987;BME280;6053;51.382;6.768;2023-10-13T00:27:27;101086.47;;;19.86;70.90
11987;BME280;6053;51.382;6.768;2023-10-13T00:30:06;101079.16;;;19.74;70.82
11987;BME280;6053;51.382;6.768;2023-10-13T00:32:57;101073.94;;;19.81;71.04
11987;BME280;6053;51.382;6.768;2023-10-13T00:35:30;101068.56;;;18.91;74.46
11987;BME280;6053;51.382;6.768;2023-10-13T00:38:06;101067.63;;;19.37;72.70
11987;BME280;6053;51.382;6.768;2023-10-13T00:40:40;101053.19;;;19.59;72.32
11987;BME280;6053;51.382;6.768;2023-10-13T00:43:13;101061.03;;;19.55;71.93
11987;BME280;6053;51.382;6.768;2023-10-13T00:46:04;101052.75;;;19.46;72.50
11987;BME280;6053;51.382;6.768;2023-10-13T00:48:42;101046.91;;;18.63;75.76
11987;BME280;6053;51.382;6.768;2023-10-13T00:51:12;101044.19;;;19.35;72.65
11987;BME280;6053;51.382;6.768;2023-10-13T00:54:03;101049.94;;;19.46;72.55
11987;BME280;6053;51.382;6.768;2023-10-13T00:56:41;101049.41;;;19.76;71.55
11987;BME280;6053;51.382;6.768;2023-10-13T00:59:15;101042.97;;;19.56;71.89
11987;BME280;6053;51.382;6.768;2023-10-13T01:01:44;101039.47;;;19.61;71.78
11987;BME280;6053;51.382;6.768;2023-10-13T01:04:14;101042.94;;;19.70;71.67
11987;BME280;6053;51.382;6.768;2023-10-13T01:06:44;101043.72;;;19.91;70.69
11987;BME280;6053;51.382;6.768;2023-10-13T01:09:13;101037.75;;;19.98;70.40
11987;BME280;6053;51.382;6.768;2023-10-13T01:11:49;101034.41;;;19.79;71.02
11987;BME280;6053;51.382;6.768;2023-10-13T01:14:21;101035.19;;;19.80;71.01
11987;BME280;6053;51.382;6.768;2023-10-13T01:17:03;101026.31;;;20.21;69.52
11987;BME280;6053;51.382;6.768;2023-10-13T01:19:37;101024.34;;;20.07;70.10
11987;BME280;6053;51.382;6.768;2023-10-13T01:22:09;101030.31;;;19.60;71.90
11987;BME280;6053;51.382;6.768;2023-10-13T01:24:39;101023.72;;;19.29;73.42
11987;BME280;6053;51.382;6.768;2023-10-13T01:27:08;101026.13;;;19.21;73.61
11987;BME280;6053;51.382;6.768;2023-10-13T01:29:49;101025.94;;;19.94;70.71
11987;BME280;6053;51.382;6.768;2023-10-13T01:32:26;101015.63;;;19.85;71.50
11987;BME280;6053;51.382;6.768;2023-10-13T01:34:55;101006.22;;;19.34;73.03
11987;BME280;6053;51.382;6.768;2023-10-13T01:37:25;101010.78;;;19.03;74.96
11987;BME280;6053;51.382;6.768;2023-10-13T01:39:58;101006.91;;;20.17;69.87
11987;BME280;6053;51.382;6.768;2023-10-13T01:42:28;101006.97;;;18.48;77.21
11987;BME280;6053;51.382;6.768;2023-10-13T01:44:57;100997.66;;;19.57;73.14
11987;BME280;6053;51.382;6.768;2023-10-13T01:47:38;100983.03;;;19.33;73.56
11987;BME280;6053;51.382;6.768;2023-10-13T01:50:07;100998.97;;;19.42;73.17
11987;BME280;6053;51.382;6.768;2023-10-13T01:52:53;100994.81;;;19.72;72.22
11987;BME280;6053;51.382;6.768;2023-10-13T01:55:33;100976.13;;;19.15;74.64
11987;BME280;6053;51.382;6.768;2023-10-13T01:58:21;100973.13;;;19.18;74.33
11987;BME280;6053;51.382;6.768;2023-10-13T02:00:50;100976.41;;;18.59;76.52
11987;BME280;6053;51.382;6.768;2023-10-13T02:03:24;100970.22;;;18.98;75.43
11987;BME280;6053;51.382;6.768;2023-10-13T02:06:01;100962.88;;;19.15;74.25
11987;BME280;6053;51.382;6.768;2023-10-13T02:08:33;100963.97;;;18.89;75.72
11987;BME280;6053;51.382;6.768;2023-10-13T02:11:11;100956.44;;;18.51;77.04
11987;BME280;6053;51.382;6.768;2023-10-13T02:13:38;100948.25;;;18.62;76.84
11987;BME280;6053;51.382;6.768;2023-10-13T02:16:20;100949.09;;;18.97;75.16
11987;BME280;6053;51.382;6.768;2023-10-13T02:18:52;100946.22;;;18.63;76.60
11987;BME280;6053;51.382;6.768;2023-10-13T02:21:23;100934.94;;;18.43;77.76
11987;BME280;6053;51.382;6.768;2023-10-13T02:24:01;100933.22;;;18.60;76.83
11987;BME280;6053;51.382;6.768;2023-10-13T02:26:35;100943.31;;;18.57;76.63
11987;BME280;6053;51.382;6.768;2023-10-13T02:29:06;100934.31;;;19.11;74.67
11987;BME280;6053;51.382;6.768;2023-10-13T02:31:36;100933.28;;;18.65;76.12
11987;BME280;6053;51.382;6.768;2023-10-13T02:34:05;100934.94;;;18.43;77.43
11987;BME280;6053;51.382;6.768;2023-10-13T02:36:39;100932.41;;;18.59;76.89
11987;BME280;6053;51.382;6.768;2023-10-13T02:39:28;100933.47;;;18.33;77.94
11987;BME280;6053;51.382;6.768;2023-10-13T02:42:09;100923.53;;;18.61;77.78
11987;BME280;6053;51.382;6.768;2023-10-13T02:44:43;100921.72;;;18.43;78.27
11987;BME280;6053;51.382;6.768;2023-10-13T02:47:16;100921.44;;;18.42;77.68
11987;BME280;6053;51.382;6.768;2023-10-13T02:49:45;100915.53;;;18.40;78.01
11987;BME280;6053;51.382;6.768;2023-10-13T02:52:18;100910.53;;;18.43;77.95
11987;BME280;6053;51.382;6.768;2023-10-13T02:54:51;100912.75;;;18.68;77.11
11987;BME280;6053;51.382;6.768;2023-10-13T02:57:21;100897.47;;;18.12;79.48
11987;BME280;6053;51.382;6.768;2023-10-13T02:59:57;100902.53;;;18.51;78.26
11987;BME280;6053;51.382;6.768;2023-10-13T03:02:39;100895.63;;;17.71;81.02
11987;BME280;6053;51.382;6.768;2023-10-13T03:05:17;100901.28;;;18.52;78.22
11987;BME280;6053;51.382;6.768;2023-10-13T03:07:48;100892.19;;;18.71;76.77
11987;BME280;6053;51.382;6.768;2023-10-13T03:10:25;100881.09;;;18.77;76.47
11987;BME280;6053;51.382;6.768;2023-10-13T03:13:00;100873.78;;;18.50;77.81
11987;BME280;6053;51.382;6.768;2023-10-13T03:15:31;100875.88;;;18.84;76.45
11987;BME280;6053;51.382;6.768;2023-10-13T03:18:05;100876.34;;;18.83;76.21
11987;BME280;6053;51.382;6.768;2023-10-13T03:20:38;100869.28;;;18.87;76.04
11987;BME280;6053;51.382;6.768;2023-10-13T03:23:09;100867.13;;;17.67;81.75
11987;BME280;6053;51.382;6.768;2023-10-13T03:25:37;100857.53;;;18.11;79.92
11987;BME280;6053;51.382;6.768;2023-10-13T03:28:14;100853.31;;;18.73;77.28
11987;BME280;6053;51.382;6.768;2023-10-13T03:30:51;100850.06;;;18.46;78.63
11987;BME280;6053;51.382;6.768;2023-10-13T03:33:26;100844.09;;;18.24;79.79
11987;BME280;6053;51.382;6.768;2023-10-13T03:35:59;100846.97;;;18.58;77.81
11987;BME280;6053;51.382;6.768;2023-10-13T03:38:35;100842.34;;;18.41;78.39
11987;BME280;6053;51.382;6.768;2023-10-13T03:41:10;100837.69;;;17.95;81.09
11987;BME280;6053;51.382;6.768;2023-10-13T03:43:59;100835.16;;;18.69;78.30
11987;BME280;6053;51.382;6.768;2023-10-13T03:46:40;100816.28;;;18.49;78.43
11987;BME280;6053;51.382;6.768;2023-10-13T03:49:12;100814.19;;;18.44;78.65
11987;BME280;6053;51.382;6.768;2023-10-13T03:51:41;100811.66;;;18.95;76.28
11987;BME280;6053;51.382;6.768;2023-10-13T03:54:12;100813.75;;;19.34;74.38
11987;BME280;6053;51.382;6.768;2023-10-13T03:56:44;100811.56;;;19.24;74.96
11987;BME280;6053;51.382;6.768;2023-10-13T03:59:16;100806.59;;;18.79;76.71
11987;BME280;6053;51.382;6.768;2023-10-13T04:01:50;100804.78;;;19.30;74.77
11987;BME280;6053;51.382;6.768;2023-10-13T04:04:29;100802.84;;;18.82;76.88
11987;BME280;6053;51.382;6.768;2023-10-13T04:07:09;100798.34;;;18.56;77.71
11987;BME280;6053;51.382;6.768;2023-10-13T04:10:00;100793.97;;;18.35;78.85
11987;BME280;6053;51.382;6.768;2023-10-13T04:13:01;100786.91;;;18.40;78.87
11987;BME280;6053;51.382;6.768;2023-10-13T04:15:56;100779.41;;;19.00;76.57
11987;BME280;6053;51.382;6.768;2023-10-13T04:19:07;100776.59;;;19.34;75.00
11987;BME280;6053;51.382;6.768;2023-10-13T04:21:49;100770.59;;;18.87;76.67
11987;BME280;6053;51.382;6.768;2023-10-13T04:24:30;100761.63;;;18.83;77.06
11987;BME280;6053;51.382;6.768;2023-10-13T04:27:27;100765.91;;;18.78;76.49
11987;BME280;6053;51.382;6.768;2023-10-13T04:30:09;100764.66;;;18.99;75.81
11987;BME280;6053;51.382;6.768;2023-10-13T04:32:53;100759.59;;;18.83;77.10
11987;BME280;6053;51.382;6.768;2023-10-13T04:35:39;100754.41;;;18.76;77.28
11987;BME280;6053;51.382;6.768;2023-10-13T04:38:20;100750.59;;;18.59;78.18
11987;BME280;6053;51.382;6.768;2023-10-13T04:40:50;100756.16;;;18.40;78.48
11987;BME280;6053;51.382;6.768;2023-10-13T04:43:29;100739.09;;;18.72;77.36
11987;BME280;6053;51.382;6.768;2023-10-13T04:46:24;100741.03;;;18.32;79.41
11987;BME280;6053;51.382;6.768;2023-10-13T04:49:31;100732.41;;;19.04;76.47
11987;BME280;6053;51.382;6.768;2023-10-13T04:52:05;100731.69;;;18.89;76.94
11987;BME280;6053;51.382;6.768;2023-10-13T04:54:41;100726.09;;;18.89;77.21
11987;BME280;6053;51.382;6.768;2023-10-13T04:57:19;100719.50;;;18.38;79.81
11987;BME280;6053;51.382;6.768;2023-10-13T05:00:04;100713.41;;;18.73;78.01
11987;BME280;6053;51.382;6.768;2023-10-13T05:02:52;100722.09;;;18.75;78.27
11987;BME280;6053;51.382;6.768;2023-10-13T05:05:59;100701.94;;;18.51;79.29
11987;BME280;6053;51.382;6.768;2023-10-13T05:09:15;100696.91;;;18.95;77.29
11987;BME280;6053;51.382;6.768;2023-10-13T05:12:00;100704.78;;;18.37;79.47
11987;BME280;6053;51.382;6.768;2023-10-13T05:14:46;100705.66;;;18.00;81.33
11987;BME280;6053;51.382;6.768;2023-10-13T05:17:32;100703.03;;;18.40;80.09
11987;BME280;6053;51.382;6.768;2023-10-13T05:20:26;100704.56;;;18.75;78.80
11987;BME280;6053;51.382;6.768;2023-10-13T05:23:15;100700.75;;;18.24;80.77
11987;BME280;6053;51.382;6.768;2023-10-13T05:26:04;100703.47;;;18.04;81.97
11987;BME280;6053;51.382;6.768;2023-10-13T05:28:57;100693.09;;;17.23;85.39
11987;BME280;6053;51.382;6.768;2023-10-13T05:31:58;100693.25;;;18.01;82.39
11987;BME280;6053;51.382;6.768;2023-10-13T05:34:47;100694.47;;;18.29;81.22
11987;BME280;6053;51.382;6.768;2023-10-13T05:37:35;100707.06;;;18.73;79.17
11987;BME280;6053;51.382;6.768;2023-10-13T05:40:31;100709.41;;;19.14;77.11
11987;BME280;6053;51.382;6.768;2023-10-13T05:43:17;100707.44;;;18.46;80.18
11987;BME280;6053;51.382;6.768;2023-10-13T05:46:09;100709.56;;;18.51;80.22
11987;BME280;6053;51.382;6.768;2023-10-13T05:48:51;100712.00;;;18.15;82.00
11987;BME280;6053;51.382;6.768;2023-10-13T05:51:43;100718.41;;;17.86;83.19
11987;BME280;6053;51.382;6.768;2023-10-13T05:54:20;100720.34;;;18.09;82.82
11987;BME280;6053;51.382;6.768;2023-10-13T05:57:15;100724.47;;;18.62;79.81
11987;BME280;6053;51.382;6.768;2023-10-13T06:00:08;100724.78;;;18.50;80.79
11987;BME280;6053;51.382;6.768;2023-10-13T06:03:08;100718.97;;;18.34;82.02
11987;BME280;6053;51.382;6.768;2023-10-13T06:05:57;100701.63;;;18.15;82.58
11987;BME280;6053;51.382;6.768;2023-10-13T06:08:42;100703.50;;;18.92;79.71
11987;BME280;6053;51.382;6.768;2023-10-13T06:11:28;100682.34;;;18.71;80.29
11987;BME280;6053;51.382;6.768;2023-10-13T06:14:21;100678.59;;;18.94;79.92
11987;BME280;6053;51.382;6.768;2023-10-13T06:17:09;100675.38;;;18.61;80.81
11987;BME280;6053;51.382;6.768;2023-10-13T06:20:03;100676.03;;;18.37;81.96
11987;BME280;6053;51.382;6.768;2023-10-13T06:22:52;100679.97;;;18.44;82.23
11987;BME280;6053;51.382;6.768;2023-10-13T06:25:57;100682.25;;;18.46;82.09
11987;BME280;6053;51.382;6.768;2023-10-13T06:28:43;100670.47;;;18.96;79.10
11987;BME280;6053;51.382;6.768;2023-10-13T06:31:14;100665.50;;;18.86;79.53
11987;BME280;6053;51.382;6.768;2023-10-13T06:33:56;100665.78;;;18.68;80.67
11987;BME280;6053;51.382;6.768;2023-10-13T06:36:28;100646.06;;;18.77;80.51
11987;BME280;6053;51.382;6.768;2023-10-13T06:38:56;100656.16;;;18.89;79.28
11987;BME280;6053;51.382;6.768;2023-10-13T06:41:53;100650.59;;;18.35;82.03
11987;BME280;6053;51.382;6.768;2023-10-13T06:44:38;100645.38;;;18.62;81.43
11987;BME280;6053;51.382;6.768;2023-10-13T06:47:08;100654.38;;;18.71;81.19
11987;BME280;6053;51.382;6.768;2023-10-13T06:49:39;100652.16;;;18.55;81.76
11987;BME280;6053;51.382;6.768;2023-10-13T06:52:13;100652.91;;;18.76;80.59
11987;BME280;6053;51.382;6.768;2023-10-13T06:54:43;100653.84;;;18.47;82.36
11987;BME280;6053;51.382;6.768;2023-10-13T06:57:11;100642.78;;;18.98;80.15
11987;BME280;6053;51.382;6.768;2023-10-13T06:59:54;100647.09;;;18.79;81.44
11987;BME280;6053;51.382;6.768;2023-10-13T07:02:27;100645.25;;;19.11;78.71
11987;BME280;6053;51.382;6.768;2023-10-13T07:05:01;100642.25;;;19.45;76.98
11987;BME280;6053;51.382;6.768;2023-10-13T07:07:38;100648.91;;;19.73;77.21
11987;BME280;6053;51.382;6.768;2023-10-13T07:10:11;100647.59;;;19.43;78.52
11987;BME280;6053;51.382;6.768;2023-10-13T07:12:40;100638.09;;;19.35;79.41
11987;BME280;6053;51.382;6.768;2023-10-13T07:15:19;100638.22;;;19.01;80.50
11987;BME280;6053;51.382;6.768;2023-10-13T07:17:57;100639.41;;;18.94;80.59
11987;BME280;6053;51.382;6.768;2023-10-13T07:20:27;100641.53;;;18.59;82.81
11987;BME280;6053;51.382;6.768;2023-10-13T07:23:01;100642.84;;;18.64;82.68
11987;BME280;6053;51.382;6.768;2023-10-13T07:25:33;100636.84;;;18.51;83.48
11987;BME280;6053;51.382;6.768;2023-10-13T07:28:08;100633.38;;;19.01;80.53
11987;BME280;6053;51.382;6.768;2023-10-13T07:30:38;100620.97;;;18.82;81.16
11987;BME280;6053;51.382;6.768;2023-10-13T07:33:23;100619.00;;;18.88;81.08
11987;BME280;6053;51.382;6.768;2023-10-13T07:36:00;100621.22;;;19.55;79.12
11987;BME280;6053;51.382;6.768;2023-10-13T07:38:40;100624.91;;;19.16;79.74
11987;BME280;6053;51.382;6.768;2023-10-13T07:41:10;100625.09;;;19.32;79.15
11987;BME280;6053;51.382;6.768;2023-10-13T07:43:43;100616.84;;;19.23;79.13
11987;BME280;6053;51.382;6.768;2023-10-13T07:46:13;100619.22;;;19.61;78.06
11987;BME280;6053;51.382;6.768;2023-10-13T07:48:43;100607.94;;;19.81;76.37
11987;BME280;6053;51.382;6.768;2023-10-13T07:51:12;100597.00;;;19.52;77.68
11987;BME280;6053;51.382;6.768;2023-10-13T07:53:49;100608.06;;;19.35;78.48
11987;BME280;6053;51.382;6.768;2023-10-13T07:56:26;100603.72;;;19.34;78.46
11987;BME280;6053;51.382;6.768;2023-10-13T07:58:57;100610.34;;;19.37;79.08
11987;BME280;6053;51.382;6.768;2023-10-13T08:01:31;100602.06;;;19.79;76.89
11987;BME280;6053;51.382;6.768;2023-10-13T08:04:03;100596.78;;;19.30;79.33
11987;BME280;6053;51.382;6.768;2023-10-13T08:06:39;100582.75;;;19.55;78.43
11987;BME280;6053;51.382;6.768;2023-10-13T08:09:11;100581.72;;;19.84;76.38
11987;BME280;6053;51.382;6.768;2023-10-13T08:11:57;100580.47;;;19.54;77.93
11987;BME280;6053;51.382;6.768;2023-10-13T08:14:31;100572.28;;;19.50;77.78
11987;BME280;6053;51.382;6.768;2023-10-13T08:17:09;100572.41;;;19.67;77.79
11987;BME280;6053;51.382;6.768;2023-10-13T08:19:42;100568.28;;;19.93;77.00
11987;BME280;6053;51.382;6.768;2023-10-13T08:22:14;100561.03;;;20.12;75.29
11987;BME280;6053;51.382;6.768;2023-10-13T08:25:14;100564.00;;;19.98;77.00
11987;BME280;6053;51.382;6.768;2023-10-13T08:28:25;100574.56;;;19.83;77.37
11987;BME280;6053;51.382;6.768;2023-10-13T08:31:14;100571.19;;;20.04;76.46
11987;BME280;6053;51.382;6.768;2023-10-13T08:33:57;100571.78;;;20.19;75.53
11987;BME280;6053;51.382;6.768;2023-10-13T08:36:42;100562.59;;;20.18;74.87
11987;BME280;6053;51.382;6.768;2023-10-13T08:39:12;100556.09;;;20.43;75.56
11987;BME280;6053;51.382;6.768;2023-10-13T08:42:12;100554.53;;;20.42;74.78
11987;BME280;6053;51.382;6.768;2023-10-13T08:44:44;100550.00;;;20.50;73.66
11987;BME280;6053;51.382;6.768;2023-10-13T08:47:15;100545.06;;;20.34;74.44
11987;BME280;6053;51.382;6.768;2023-10-13T08:49:52;100536.09;;;20.19;75.11
11987;BME280;6053;51.382;6.768;2023-10-13T08:52:53;100538.22;;;20.41;73.76
11987;BME280;6053;51.382;6.768;2023-10-13T08:55:32;100535.41;;;20.35;74.27
11987;BME280;6053;51.382;6.768;2023-10-13T08:58:30;100529.56;;;20.50;73.38
11987;BME280;6053;51.382;6.768;2023-10-13T09:01:15;100527.59;;;20.67;72.87
11987;BME280;6053;51.382;6.768;2023-10-13T09:04:02;100525.38;;;20.98;71.57
11987;BME280;6053;51.382;6.768;2023-10-13T09:06:49;100524.91;;;21.27;72.06
11987;BME280;6053;51.382;6.768;2023-10-13T09:09:47;100527.44;;;20.97;71.69
11987;BME280;6053;51.382;6.768;2023-10-13T09:12:34;100522.38;;;21.61;68.74
11987;BME280;6053;51.382;6.768;2023-10-13T09:15:31;100521.56;;;21.17;70.34
11987;BME280;6053;51.382;6.768;2023-10-13T09:18:31;100520.31;;;21.24;70.33
11987;BME280;6053;51.382;6.768;2023-10-13T09:21:16;100513.94;;;21.12;70.04
11987;BME280;6053;51.382;6.768;2023-10-13T09:23:57;100516.22;;;21.57;69.82
11987;BME280;6053;51.382;6.768;2023-10-13T09:26:47;100519.75;;;21.85;67.51
11987;BME280;6053;51.382;6.768;2023-10-13T09:29:33;100503.09;;;22.66;64.95
11987;BME280;6053;51.382;6.768;2023-10-13T09:32:07;100491.22;;;23.18;62.29
11987;BME280;6053;51.382;6.768;2023-10-13T09:34:39;100494.66;;;23.06;61.49
11987;BME280;6053;51.382;6.768;2023-10-13T09:37:12;100490.09;;;22.98;62.55
11987;BME280;6053;51.382;6.768;2023-10-13T09:39:42;100492.75;;;22.39;63.09
11987;BME280;6053;51.382;6.768;2023-10-13T09:42:30;100490.06;;;22.63;65.28
11987;BME280;6053;51.382;6.768;2023-10-13T09:45:09;100480.19;;;22.45;63.23
11987;BME280;6053;51.382;6.768;2023-10-13T09:47:42;100491.75;;;22.31;63.20
11987;BME280;6053;51.382;6.768;2023-10-13T09:50:13;100490.56;;;22.67;61.36
11987;BME280;6053;51.382;6.768;2023-10-13T09:52:52;100484.00;;;23.28;62.65
11987;BME280;6053;51.382;6.768;2023-10-13T09:55:34;100486.56;;;22.92;62.01
11987;BME280;6053;51.382;6.768;2023-10-13T09:58:09;100483.03;;;22.40;60.81
11987;BME280;6053;51.382;6.768;2023-10-13T10:00:48;100477.06;;;22.54;62.90
11987;BME280;6053;51.382;6.768;2023-10-13T10:03:25;100471.97;;;22.53;61.81
11987;BME280;6053;51.382;6.768;2023-10-13T10:06:27;100469.25;;;22.77;62.04
11987;BME280;6053;51.382;6.768;2023-10-13T10:09:11;100469.13;;;22.53;59.49
11987;BME280;6053;51.382;6.768;2023-10-13T10:12:27;100462.97;;;22.60;60.34
11987;BME280;6053;51.382;6.768;2023-10-13T10:15:07;100461.56;;;22.37;60.16
11987;BME280;6053;51.382;6.768;2023-10-13T10:17:44;100448.47;;;22.39;59.25
11987;BME280;6053;51.382;6.768;2023-10-13T10:20:28;100448.91;;;22.54;60.34
11987;BME280;6053;51.382;6.768;2023-10-13T10:23:23;100452.06;;;22.45;58.59
11987;BME280;6053;51.382;6.768;2023-10-13T10:25:53;100442.81;;;22.50;58.60
11987;BME280;6053;51.382;6.768;2023-10-13T10:28:38;100443.28;;;22.54;61.31
11987;BME280;6053;51.382;6.768;2023-10-13T10:31:11;100450.88;;;22.65;60.15
11987;BME280;6053;51.382;6.768;2023-10-13T10:33:41;100446.16;;;22.49;59.59
11987;BME280;6053;51.382;6.768;2023-10-13T10:36:10;100442.72;;;22.61;59.40
11987;BME280;6053;51.382;6.768;2023-10-13T10:39:00;100436.94;;;22.48;58.01
11987;BME280;6053;51.382;6.768;2023-10-13T10:41:41;100422.09;;;22.48;59.70
11987;BME280;6053;51.382;6.768;2023-10-13T10:44:25;100428.22;;;22.52;60.72
11987;BME280;6053;51.382;6.768;2023-10-13T10:47:20;100427.19;;;22.55;59.70
11987;BME280;6053;51.382;6.768;2023-10-13T10:49:59;100434.75;;;22.71;60.27
11987;BME280;6053;51.382;6.768;2023-10-13T10:52:55;100429.22;;;22.54;60.37
11987;BME280;6053;51.382;6.768;2023-10-13T10:55:27;100427.38;;;22.62;58.98
11987;BME280;6053;51.382;6.768;2023-10-13T10:58:00;100413.59;;;22.53;59.93
11987;BME280;6053;51.382;6.768;2023-10-13T11:00:34;100412.03;;;22.58;57.17
11987;BME280;6053;51.382;6.768;2023-10-13T11:03:14;100404.50;;;22.77;59.51
11987;BME280;6053;51.382;6.768;2023-10-13T11:05:48;100408.31;;;22.79;58.32
11987;BME280;6053;51.382;6.768;2023-10-13T11:08:24;100402.50;;;23.01;59.37
11987;BME280;6053;51.382;6.768;2023-10-13T11:11:01;100394.66;;;22.89;58.88
11987;BME280;6053;51.382;6.768;2023-10-13T11:13:41;100383.31;;;23.00;58.84
11987;BME280;6053;51.382;6.768;2023-10-13T11:16:24;100379.00;;;22.93;59.02
11987;BME280;6053;51.382;6.768;2023-10-13T11:19:11;100382.16;;;22.84;57.48
11987;BME280;6053;51.382;6.768;2023-10-13T11:21:42;100383.06;;;22.98;56.94
11987;BME280;6053;51.382;6.768;2023-10-13T11:24:13;100369.34;;;22.83;56.49
11987;BME280;6053;51.382;6.768;2023-10-13T11:26:45;100371.44;;;22.83;56.28
11987;BME280;6053;51.382;6.768;2023-10-13T11:29:17;100369.44;;;23.31;56.49
11987;BME280;6053;51.382;6.768;2023-10-13T11:31:54;100369.22;;;23.29;54.13
11987;BME280;6053;51.382;6.768;2023-10-13T11:34:30;100361.34;;;23.46;53.97
11987;BME280;6053;51.382;6.768;2023-10-13T11:37:08;100347.03;;;23.86;53.07
11987;BME280;6053;51.382;6.768;2023-10-13T11:39:56;100337.69;;;23.73;52.68
11987;BME280;6053;51.382;6.768;2023-10-13T11:42:25;100338.34;;;24.02;53.74
11987;BME280;6053;51.382;6.768;2023-10-13T11:44:57;100331.72;;;24.00;53.53
11987;BME280;6053;51.382;6.768;2023-10-13T11:47:50;100327.97;;;23.92;53.05
11987;BME280;6053;51.382;6.768;2023-10-13T11:50:30;100330.19;;;23.99;55.25
11987;BME280;6053;51.382;6.768;2023-10-13T11:53:02;100334.97;;;24.04;55.61
11987;BME280;6053;51.382;6.768;2023-10-13T11:55:40;100338.41;;;23.97;53.77
11987;BME280;6053;51.382;6.768;2023-10-13T11:58:11;100332.03;;;23.96;55.29
11987;BME280;6053;51.382;6.768;2023-10-13T12:00:44;100331.56;;;23.92;53.80
11987;BME280;6053;51.382;6.768;2023-10-13T12:03:21;100326.16;;;23.94;53.37
11987;BME280;6053;51.382;6.768;2023-10-13T12:06:11;100332.41;;;24.06;52.73
11987;BME280;6053;51.382;6.768;2023-10-13T12:09:00;100337.19;;;24.11;52.10
11987;BME280;6053;51.382;6.768;2023-10-13T12:11:49;100320.56;;;24.07;53.35
11987;BME280;6053;51.382;6.768;2023-10-13T12:14:21;100318.28;;;24.06;51.93
11987;BME280;6053;51.382;6.768;2023-10-13T12:17:09;100319.28;;;24.08;51.45
11987;BME280;6053;51.382;6.768;2023-10-13T12:19:39;100317.28;;;24.22;54.50
11987;BME280;6053;51.382;6.768;2023-10-13T12:22:09;100313.94;;;24.23;51.39
11987;BME280;6053;51.382;6.768;2023-10-13T12:24:43;100310.44;;;24.17;51.06
11987;BME280;6053;51.382;6.768;2023-10-13T12:27:40;100309.59;;;24.04;51.33
11987;BME280;6053;51.382;6.768;2023-10-13T12:30:21;100306.84;;;23.98;50.94
11987;BME280;6053;51.382;6.768;2023-10-13T12:33:08;100298.94;;;23.97;52.34
11987;BME280;6053;51.382;6.768;2023-10-13T12:35:40;100292.84;;;23.93;50.59
11987;BME280;6053;51.382;6.768;2023-10-13T12:38:14;100293.03;;;23.95;52.48
11987;BME280;6053;51.382;6.768;2023-10-13T12:41:06;100292.59;;;23.91;51.34
11987;BME280;6053;51.382;6.768;2023-10-13T12:44:03;100283.28;;;23.96;50.84
11987;BME280;6053;51.382;6.768;2023-10-13T12:46:50;100294.56;;;23.96;52.46
11987;BME280;6053;51.382;6.768;2023-10-13T12:49:37;100284.16;;;23.91;51.93
11987;BME280;6053;51.382;6.768;2023-10-13T12:52:22;100287.28;;;23.88;50.77
11987;BME280;6053;51.382;6.768;2023-10-13T12:54:57;100292.16;;;23.87;51.70
11987;BME280;6053;51.382;6.768;2023-10-13T12:57:40;100296.41;;;24.12;54.79
11987;BME280;6053;51.382;6.768;2023-10-13T13:00:18;100286.41;;;24.11;53.64
11987;BME280;6053;51.382;6.768;2023-10-13T13:02:51;100300.06;;;24.07;55.29
11987;BME280;6053;51.382;6.768;2023-10-13T13:05:29;100302.97;;;23.83;53.47
11987;BME280;6053;51.382;6.768;2023-10-13T13:07:58;100302.06;;;23.75;51.51
11987;BME280;6053;51.382;6.768;2023-10-13T13:10:28;100294.81;;;23.80;52.64
11987;BME280;6053;51.382;6.768;2023-10-13T13:13:18;100296.88;;;23.79;52.64
11987;BME280;6053;51.382;6.768;2023-10-13T13:15:52;100296.09;;;23.97;52.09
11987;BME280;6053;51.382;6.768;2023-10-13T13:18:20;100291.84;;;24.09;54.20
11987;BME280;6053;51.382;6.768;2023-10-13T13:20:48;100290.78;;;23.93;49.97
11987;BME280;6053;51.382;6.768;2023-10-13T13:23:27;100287.38;;;24.13;52.95
11987;BME280;6053;51.382;6.768;2023-10-13T13:25:59;100297.03;;;23.87;51.37
11987;BME280;6053;51.382;6.768;2023-10-13T13:28:34;100286.41;;;23.92;50.90
11987;BME280;6053;51.382;6.768;2023-10-13T13:31:05;100292.56;;;23.73;50.00
11987;BME280;6053;51.382;6.768;2023-10-13T13:33:35;100284.66;;;23.71;50.31
11987;BME280;6053;51.382;6.768;2023-10-13T13:36:15;100291.59;;;23.70;50.43
11987;BME280;6053;51.382;6.768;2023-10-13T13:38:44;100286.78;;;23.65;51.01
11987;BME280;6053;51.382;6.768;2023-10-13T13:41:18;100283.78;;;23.82;53.53
11987;BME280;6053;51.382;6.768;2023-10-13T13:43:50;100278.72;;;23.56;50.50
11987;BME280;6053;51.382;6.768;2023-10-13T13:46:31;100274.91;;;23.72;49.88
11987;BME280;6053;51.382;6.768;2023-10-13T13:49:08;100277.03;;;23.85;51.65
11987;BME280;6053;51.382;6.768;2023-10-13T13:51:45;100266.84;;;23.82;54.10
11987;BME280;6053;51.382;6.768;2023-10-13T13:54:26;100269.44;;;23.98;52.84
11987;BME280;6053;51.382;6.768;2023-10-13T13:56:56;100271.19;;;23.83;53.46
11987;BME280;6053;51.382;6.768;2023-10-13T13:59:28;100263.78;;;23.61;49.91
11987;BME280;6053;51.382;6.768;2023-10-13T14:02:01;100262.56;;;23.75;49.50
11987;BME280;6053;51.382;6.768;2023-10-13T14:04:46;100259.63;;;23.86;54.08